sensor_id;sensor_type;location;lat;lon;timestamp;P1;durP1;ratioP1;P2;durP2;ratioP2
2622;SDS011;1321;48.690;9.022;2022-09-25T00:01:28;24.00;;;21.70;;
2622;SDS011;1321;48.690;9.022;2022-09-25T00:03:56;24.93;;;22.23;;
2622;SDS011;1321;48.690;9.022;2022-09-25T00:06:25;23.10;;;20.80;;
2622;SDS011;1321;48.690;9.022;2022-09-25T00:08:54;24.23;;;22.10;;
2622;SDS011;1321;48.690;9.022;2022-09-25T00:11:24;23.47;;;21.17;;
2622;SDS011;1321;48.690;9.022;2022-09-25T00:13:54;21.87;;;19.77;;
2622;SDS011;1321;48.690;9.022;2022-09-25T00:16:23;24.47;;;21.87;;
2622;SDS011;1321;48.690;9.022;2022-09-25T00:18:55;22.77;;;20.47;;
2622;SDS011;1321;48.690;9.022;2022-09-25T00:21:42;24.67;;;22.37;;
2622;SDS011;1321;48.690;9.022;2022-09-25T00:24:11;23.00;;;20.83;;
2622;SDS011;1321;48.690;9.022;2022-09-25T00:26:41;23.97;;;21.77;;
2622;SDS011;1321;48.690;9.022;2022-09-25T00:29:12;23.70;;;21.47;;
2622;SDS011;1321;48.690;9.022;2022-09-25T00:31:42;22.77;;;20.43;;
2622;SDS011;1321;48.690;9.022;2022-09-25T00:34:12;23.33;;;21.07;;
2622;SDS011;1321;48.690;9.022;2022-09-25T00:36:40;22.30;;;20.30;;
2622;SDS011;1321;48.690;9.022;2022-09-25T00:39:08;24.03;;;21.83;;
2622;SDS011;1321;48.690;9.022;2022-09-25T00:41:36;21.97;;;20.03;;
2622;SDS011;1321;48.690;9.022;2022-09-25T00:44:39;23.03;;;20.83;;
2622;SDS011;1321;48.690;9.022;2022-09-25T00:47:43;22.77;;;20.40;;
2622;SDS011;1321;48.690;9.022;2022-09-25T00:50:20;22.40;;;20.23;;
2622;SDS011;1321;48.690;9.022;2022-09-25T00:53:00;22.83;;;20.83;;
2622;SDS011;1321;48.690;9.022;2022-09-25T00:55:31;20.93;;;18.73;;
2622;SDS011;1321;48.690;9.022;2022-09-25T00:58:00;22.30;;;20.20;;
2622;SDS011;1321;48.690;9.022;2022-09-25T01:00:30;22.27;;;20.17;;
2622;SDS011;1321;48.690;9.022;2022-09-25T01:02:59;22.90;;;20.60;;
2622;SDS011;1321;48.690;9.022;2022-09-25T01:05:32;21.60;;;19.47;;
2622;SDS011;1321;48.690;9.022;2022-09-25T01:08:04;21.47;;;19.30;;
2622;SDS011;1321;48.690;9.022;2022-09-25T01:10:33;22.17;;;19.93;;
2622;SDS011;1321;48.690;9.022;2022-09-25T01:13:02;21.53;;;19.40;;
2622;SDS011;1321;48.690;9.022;2022-09-25T01:15:33;22.37;;;20.07;;
2622;SDS011;1321;48.690;9.022;2022-09-25T01:18:11;26.87;;;19.93;;
2622;SDS011;1321;48.690;9.022;2022-09-25T01:20:57;28.77;;;20.13;;
2622;SDS011;1321;48.690;9.022;2022-09-25T01:23:50;28.87;;;20.53;;
2622;SDS011;1321;48.690;9.022;2022-09-25T01:26:33;21.87;;;19.70;;
2622;SDS011;1321;48.690;9.022;2022-09-25T01:29:20;19.27;;;17.37;;
2622;SDS011;1321;48.690;9.022;2022-09-25T01:31:55;20.83;;;18.93;;
2622;SDS011;1321;48.690;9.022;2022-09-25T01:34:30;21.67;;;19.47;;
2622;SDS011;1321;48.690;9.022;2022-09-25T01:37:06;20.07;;;18.13;;
2622;SDS011;1321;48.690;9.022;2022-09-25T01:39:42;20.70;;;18.70;;
2622;SDS011;1321;48.690;9.022;2022-09-25T01:42:15;20.60;;;18.73;;
2622;SDS011;1321;48.690;9.022;2022-09-25T01:44:50;21.20;;;19.03;;
2622;SDS011;1321;48.690;9.022;2022-09-25T01:47:25;23.20;;;20.80;;
2622;SDS011;1321;48.690;9.022;2022-09-25T01:49:55;23.53;;;21.33;;
2622;SDS011;1321;48.690;9.022;2022-09-25T01:52:27;23.90;;;21.50;;
2622;SDS011;1321;48.690;9.022;2022-09-25T01:55:03;23.63;;;21.23;;
2622;SDS011;1321;48.690;9.022;2022-09-25T01:57:35;21.07;;;19.27;;
2622;SDS011;1321;48.690;9.022;2022-09-25T02:00:10;20.73;;;18.90;;
2622;SDS011;1321;48.690;9.022;2022-09-25T02:02:41;21.37;;;19.50;;
2622;SDS011;1321;48.690;9.022;2022-09-25T02:05:12;20.07;;;18.07;;
2622;SDS011;1321;48.690;9.022;2022-09-25T02:07:46;20.23;;;18.50;;
2622;SDS011;1321;48.690;9.022;2022-09-25T02:10:19;19.30;;;17.70;;
2622;SDS011;1321;48.690;9.022;2022-09-25T02:12:52;19.30;;;17.60;;
2622;SDS011;1321;48.690;9.022;2022-09-25T02:15:27;19.13;;;17.53;;
2622;SDS011;1321;48.690;9.022;2022-09-25T02:17:58;18.50;;;16.90;;
2622;SDS011;1321;48.690;9.022;2022-09-25T02:20:46;18.60;;;16.83;;
2622;SDS011;1321;48.690;9.022;2022-09-25T02:23:20;18.67;;;17.07;;
2622;SDS011;1321;48.690;9.022;2022-09-25T02:25:53;18.20;;;16.63;;
2622;SDS011;1321;48.690;9.022;2022-09-25T02:28:24;18.43;;;17.03;;
2622;SDS011;1321;48.690;9.022;2022-09-25T02:30:55;18.87;;;17.30;;
2622;SDS011;1321;48.690;9.022;2022-09-25T02:33:25;19.03;;;17.53;;
2622;SDS011;1321;48.690;9.022;2022-09-25T02:35:53;19.20;;;17.70;;
2622;SDS011;1321;48.690;9.022;2022-09-25T02:38:22;17.77;;;16.43;;
2622;SDS011;1321;48.690;9.022;2022-09-25T02:40:50;20.00;;;18.23;;
2622;SDS011;1321;48.690;9.022;2022-09-25T02:43:25;18.77;;;17.30;;
2622;SDS011;1321;48.690;9.022;2022-09-25T02:46:07;18.73;;;17.17;;
2622;SDS011;1321;48.690;9.022;2022-09-25T02:48:42;18.73;;;17.23;;
2622;SDS011;1321;48.690;9.022;2022-09-25T02:51:18;18.90;;;17.40;;
2622;SDS011;1321;48.690;9.022;2022-09-25T02:53:54;18.10;;;16.67;;
2622;SDS011;1321;48.690;9.022;2022-09-25T02:56:28;18.60;;;17.20;;
2622;SDS011;1321;48.690;9.022;2022-09-25T02:59:01;19.60;;;18.00;;
2622;SDS011;1321;48.690;9.022;2022-09-25T03:01:35;19.77;;;18.07;;
2622;SDS011;1321;48.690;9.022;2022-09-25T03:04:07;19.40;;;17.70;;
2622;SDS011;1321;48.690;9.022;2022-09-25T03:06:37;20.20;;;18.50;;
2622;SDS011;1321;48.690;9.022;2022-09-25T03:09:07;20.03;;;18.23;;
2622;SDS011;1321;48.690;9.022;2022-09-25T03:11:36;19.30;;;17.50;;
2622;SDS011;1321;48.690;9.022;2022-09-25T03:14:06;19.77;;;18.10;;
2622;SDS011;1321;48.690;9.022;2022-09-25T03:16:38;19.90;;;18.10;;
2622;SDS011;1321;48.690;9.022;2022-09-25T03:19:11;20.43;;;18.83;;
2622;SDS011;1321;48.690;9.022;2022-09-25T03:21:39;18.73;;;17.30;;
2622;SDS011;1321;48.690;9.022;2022-09-25T03:24:08;17.17;;;15.77;;
2622;SDS011;1321;48.690;9.022;2022-09-25T03:26:36;18.50;;;17.00;;
2622;SDS011;1321;48.690;9.022;2022-09-25T03:29:05;16.43;;;15.23;;
2622;SDS011;1321;48.690;9.022;2022-09-25T03:31:34;16.90;;;15.60;;
2622;SDS011;1321;48.690;9.022;2022-09-25T03:34:03;18.47;;;17.07;;
2622;SDS011;1321;48.690;9.022;2022-09-25T03:36:32;17.57;;;16.07;;
2622;SDS011;1321;48.690;9.022;2022-09-25T03:39:01;18.63;;;16.97;;
2622;SDS011;1321;48.690;9.022;2022-09-25T03:41:32;19.03;;;17.43;;
2622;SDS011;1321;48.690;9.022;2022-09-25T03:44:01;18.67;;;17.17;;
2622;SDS011;1321;48.690;9.022;2022-09-25T03:46:31;19.03;;;17.37;;
2622;SDS011;1321;48.690;9.022;2022-09-25T03:49:00;18.40;;;16.90;;
2622;SDS011;1321;48.690;9.022;2022-09-25T03:51:31;19.50;;;18.00;;
2622;SDS011;1321;48.690;9.022;2022-09-25T03:54:00;20.87;;;19.13;;
2622;SDS011;1321;48.690;9.022;2022-09-25T03:56:29;20.33;;;18.70;;
2622;SDS011;1321;48.690;9.022;2022-09-25T03:58:58;18.70;;;17.10;;
2622;SDS011;1321;48.690;9.022;2022-09-25T04:01:26;19.10;;;17.60;;
2622;SDS011;1321;48.690;9.022;2022-09-25T04:03:55;18.43;;;17.03;;
2622;SDS011;1321;48.690;9.022;2022-09-25T04:06:24;17.90;;;16.40;;
2622;SDS011;1321;48.690;9.022;2022-09-25T04:08:54;18.53;;;17.03;;
2622;SDS011;1321;48.690;9.022;2022-09-25T04:11:23;17.67;;;16.37;;
2622;SDS011;1321;48.690;9.022;2022-09-25T04:13:51;17.63;;;16.20;;
2622;SDS011;1321;48.690;9.022;2022-09-25T04:16:19;18.47;;;16.97;;
2622;SDS011;1321;48.690;9.022;2022-09-25T04:18:47;16.90;;;15.80;;
2622;SDS011;1321;48.690;9.022;2022-09-25T04:21:16;18.23;;;16.73;;
2622;SDS011;1321;48.690;9.022;2022-09-25T04:23:44;17.27;;;15.97;;
2622;SDS011;1321;48.690;9.022;2022-09-25T04:26:34;17.33;;;16.03;;
2622;SDS011;1321;48.690;9.022;2022-09-25T04:29:02;17.33;;;15.83;;
2622;SDS011;1321;48.690;9.022;2022-09-25T04:31:31;16.67;;;15.40;;
2622;SDS011;1321;48.690;9.022;2022-09-25T04:33:59;16.60;;;15.40;;
2622;SDS011;1321;48.690;9.022;2022-09-25T04:36:27;16.40;;;15.10;;
2622;SDS011;1321;48.690;9.022;2022-09-25T04:38:55;17.90;;;16.50;;
2622;SDS011;1321;48.690;9.022;2022-09-25T04:41:23;17.27;;;15.97;;
2622;SDS011;1321;48.690;9.022;2022-09-25T04:43:52;17.53;;;16.23;;
2622;SDS011;1321;48.690;9.022;2022-09-25T04:46:21;16.47;;;15.23;;
2622;SDS011;1321;48.690;9.022;2022-09-25T04:48:49;16.97;;;15.63;;
2622;SDS011;1321;48.690;9.022;2022-09-25T04:51:17;17.53;;;16.03;;
2622;SDS011;1321;48.690;9.022;2022-09-25T04:53:45;19.00;;;17.50;;
2622;SDS011;1321;48.690;9.022;2022-09-25T04:56:13;17.97;;;16.17;;
2622;SDS011;1321;48.690;9.022;2022-09-25T04:58:43;18.70;;;17.20;;
2622;SDS011;1321;48.690;9.022;2022-09-25T05:01:13;18.00;;;16.60;;
2622;SDS011;1321;48.690;9.022;2022-09-25T05:03:42;17.73;;;16.50;;
2622;SDS011;1321;48.690;9.022;2022-09-25T05:06:10;17.87;;;16.57;;
2622;SDS011;1321;48.690;9.022;2022-09-25T05:08:38;18.57;;;17.07;;
2622;SDS011;1321;48.690;9.022;2022-09-25T05:11:06;16.97;;;15.77;;
2622;SDS011;1321;48.690;9.022;2022-09-25T05:13:35;16.93;;;15.60;;
2622;SDS011;1321;48.690;9.022;2022-09-25T05:16:03;16.90;;;15.60;;
2622;SDS011;1321;48.690;9.022;2022-09-25T05:18:33;16.90;;;15.70;;
2622;SDS011;1321;48.690;9.022;2022-09-25T05:21:01;16.70;;;15.57;;
2622;SDS011;1321;48.690;9.022;2022-09-25T05:23:31;15.23;;;14.20;;
2622;SDS011;1321;48.690;9.022;2022-09-25T05:25:59;14.40;;;13.50;;
2622;SDS011;1321;48.690;9.022;2022-09-25T05:28:28;15.80;;;14.57;;
2622;SDS011;1321;48.690;9.022;2022-09-25T05:30:57;16.10;;;14.80;;
2622;SDS011;1321;48.690;9.022;2022-09-25T05:33:28;14.73;;;13.43;;
2622;SDS011;1321;48.690;9.022;2022-09-25T05:36:00;17.10;;;15.83;;
2622;SDS011;1321;48.690;9.022;2022-09-25T05:38:30;18.17;;;16.57;;
2622;SDS011;1321;48.690;9.022;2022-09-25T05:40:59;15.30;;;14.20;;
2622;SDS011;1321;48.690;9.022;2022-09-25T05:43:30;13.53;;;12.53;;
2622;SDS011;1321;48.690;9.022;2022-09-25T05:45:58;14.40;;;13.40;;
2622;SDS011;1321;48.690;9.022;2022-09-25T05:48:27;15.50;;;14.40;;
2622;SDS011;1321;48.690;9.022;2022-09-25T05:50:55;16.60;;;15.30;;
2622;SDS011;1321;48.690;9.022;2022-09-25T05:53:26;15.40;;;14.40;;
2622;SDS011;1321;48.690;9.022;2022-09-25T05:55:54;16.60;;;15.40;;
2622;SDS011;1321;48.690;9.022;2022-09-25T05:58:24;15.10;;;14.00;;
2622;SDS011;1321;48.690;9.022;2022-09-25T06:00:53;15.20;;;14.10;;
2622;SDS011;1321;48.690;9.022;2022-09-25T06:03:21;16.00;;;14.60;;
2622;SDS011;1321;48.690;9.022;2022-09-25T06:05:50;17.17;;;15.67;;
2622;SDS011;1321;48.690;9.022;2022-09-25T06:08:18;17.50;;;16.20;;
2622;SDS011;1321;48.690;9.022;2022-09-25T06:10:51;17.73;;;15.80;;
2622;SDS011;1321;48.690;9.022;2022-09-25T06:13:23;17.47;;;15.97;;
2622;SDS011;1321;48.690;9.022;2022-09-25T06:15:52;17.47;;;16.07;;
2622;SDS011;1321;48.690;9.022;2022-09-25T06:18:20;15.73;;;14.53;;
2622;SDS011;1321;48.690;9.022;2022-09-25T06:20:50;15.83;;;14.30;;
2622;SDS011;1321;48.690;9.022;2022-09-25T06:23:18;15.70;;;14.40;;
2622;SDS011;1321;48.690;9.022;2022-09-25T06:25:46;15.80;;;14.30;;
2622;SDS011;1321;48.690;9.022;2022-09-25T06:28:16;15.13;;;13.80;;
2622;SDS011;1321;48.690;9.022;2022-09-25T06:30:44;16.33;;;15.03;;
2622;SDS011;1321;48.690;9.022;2022-09-25T06:33:13;14.07;;;12.97;;
2622;SDS011;1321;48.690;9.022;2022-09-25T06:35:42;15.80;;;14.57;;
2622;SDS011;1321;48.690;9.022;2022-09-25T06:38:11;14.50;;;13.40;;
2622;SDS011;1321;48.690;9.022;2022-09-25T06:40:40;15.90;;;14.60;;
2622;SDS011;1321;48.690;9.022;2022-09-25T06:43:09;15.40;;;14.20;;
2622;SDS011;1321;48.690;9.022;2022-09-25T06:45:39;15.80;;;14.60;;
2622;SDS011;1321;48.690;9.022;2022-09-25T06:48:08;16.00;;;14.50;;
2622;SDS011;1321;48.690;9.022;2022-09-25T06:50:39;15.17;;;13.97;;
2622;SDS011;1321;48.690;9.022;2022-09-25T06:53:09;15.00;;;13.60;;
2622;SDS011;1321;48.690;9.022;2022-09-25T06:55:38;16.83;;;15.43;;
2622;SDS011;1321;48.690;9.022;2022-09-25T06:58:07;16.23;;;14.73;;
2622;SDS011;1321;48.690;9.022;2022-09-25T07:00:40;19.20;;;17.07;;
2622;SDS011;1321;48.690;9.022;2022-09-25T07:03:11;19.40;;;16.60;;
2622;SDS011;1321;48.690;9.022;2022-09-25T07:05:58;18.30;;;16.47;;
2622;SDS011;1321;48.690;9.022;2022-09-25T07:08:27;17.20;;;15.90;;
2622;SDS011;1321;48.690;9.022;2022-09-25T07:10:56;18.40;;;16.90;;
2622;SDS011;1321;48.690;9.022;2022-09-25T07:13:27;18.23;;;16.73;;
2622;SDS011;1321;48.690;9.022;2022-09-25T07:15:58;17.60;;;15.90;;
2622;SDS011;1321;48.690;9.022;2022-09-25T07:18:28;17.97;;;16.33;;
2622;SDS011;1321;48.690;9.022;2022-09-25T07:21:00;18.00;;;16.20;;
2622;SDS011;1321;48.690;9.022;2022-09-25T07:23:29;18.27;;;16.47;;
2622;SDS011;1321;48.690;9.022;2022-09-25T07:26:02;16.83;;;15.40;;
2622;SDS011;1321;48.690;9.022;2022-09-25T07:28:32;17.80;;;16.20;;
2622;SDS011;1321;48.690;9.022;2022-09-25T07:31:10;18.10;;;16.60;;
2622;SDS011;1321;48.690;9.022;2022-09-25T07:33:40;17.97;;;16.40;;
2622;SDS011;1321;48.690;9.022;2022-09-25T07:36:08;16.03;;;14.93;;
2622;SDS011;1321;48.690;9.022;2022-09-25T07:38:37;17.40;;;16.10;;
2622;SDS011;1321;48.690;9.022;2022-09-25T07:41:06;17.30;;;15.90;;
2622;SDS011;1321;48.690;9.022;2022-09-25T07:43:36;17.30;;;16.00;;
2622;SDS011;1321;48.690;9.022;2022-09-25T07:46:05;16.57;;;15.40;;
2622;SDS011;1321;48.690;9.022;2022-09-25T07:48:35;17.53;;;16.10;;
2622;SDS011;1321;48.690;9.022;2022-09-25T07:51:04;16.57;;;15.20;;
2622;SDS011;1321;48.690;9.022;2022-09-25T07:53:34;17.60;;;16.30;;
2622;SDS011;1321;48.690;9.022;2022-09-25T07:56:02;18.57;;;17.20;;
2622;SDS011;1321;48.690;9.022;2022-09-25T07:58:32;16.33;;;15.23;;
2622;SDS011;1321;48.690;9.022;2022-09-25T08:01:02;15.90;;;14.90;;
2622;SDS011;1321;48.690;9.022;2022-09-25T08:03:32;17.40;;;16.20;;
2622;SDS011;1321;48.690;9.022;2022-09-25T08:06:02;15.40;;;14.43;;
2622;SDS011;1321;48.690;9.022;2022-09-25T08:08:32;15.97;;;14.80;;
2622;SDS011;1321;48.690;9.022;2022-09-25T08:11:01;15.23;;;14.20;;
2622;SDS011;1321;48.690;9.022;2022-09-25T08:13:32;14.57;;;13.67;;
2622;SDS011;1321;48.690;9.022;2022-09-25T08:16:01;15.03;;;14.03;;
2622;SDS011;1321;48.690;9.022;2022-09-25T08:18:29;15.13;;;14.30;;
2622;SDS011;1321;48.690;9.022;2022-09-25T08:20:59;14.23;;;13.53;;
2622;SDS011;1321;48.690;9.022;2022-09-25T08:23:30;15.70;;;14.70;;
2622;SDS011;1321;48.690;9.022;2022-09-25T08:25:59;15.30;;;14.20;;
2622;SDS011;1321;48.690;9.022;2022-09-25T08:28:28;15.43;;;14.53;;
2622;SDS011;1321;48.690;9.022;2022-09-25T08:30:56;14.90;;;14.07;;
2622;SDS011;1321;48.690;9.022;2022-09-25T08:33:25;14.90;;;14.00;;
2622;SDS011;1321;48.690;9.022;2022-09-25T08:35:54;14.60;;;13.80;;
2622;SDS011;1321;48.690;9.022;2022-09-25T08:38:25;15.50;;;14.47;;
2622;SDS011;1321;48.690;9.022;2022-09-25T08:40:55;15.90;;;15.00;;
2622;SDS011;1321;48.690;9.022;2022-09-25T08:43:28;15.20;;;14.50;;
2622;SDS011;1321;48.690;9.022;2022-09-25T08:45:59;14.10;;;13.40;;
2622;SDS011;1321;48.690;9.022;2022-09-25T08:48:50;15.03;;;14.27;;
2622;SDS011;1321;48.690;9.022;2022-09-25T08:51:32;14.80;;;14.03;;
2622;SDS011;1321;48.690;9.022;2022-09-25T08:54:04;14.77;;;14.07;;
2622;SDS011;1321;48.690;9.022;2022-09-25T08:56:33;13.57;;;12.77;;
2622;SDS011;1321;48.690;9.022;2022-09-25T08:59:03;13.07;;;12.47;;
2622;SDS011;1321;48.690;9.022;2022-09-25T09:01:41;13.37;;;12.67;;
2622;SDS011;1321;48.690;9.022;2022-09-25T09:04:16;14.00;;;13.40;;
2622;SDS011;1321;48.690;9.022;2022-09-25T09:06:50;15.23;;;14.27;;
2622;SDS011;1321;48.690;9.022;2022-09-25T09:09:44;12.47;;;11.87;;
2622;SDS011;1321;48.690;9.022;2022-09-25T09:12:16;11.00;;;10.50;;
2622;SDS011;1321;48.690;9.022;2022-09-25T09:14:48;11.90;;;11.20;;
2622;SDS011;1321;48.690;9.022;2022-09-25T09:17:18;10.50;;;10.10;;
2622;SDS011;1321;48.690;9.022;2022-09-25T09:19:50;11.23;;;10.73;;
2622;SDS011;1321;48.690;9.022;2022-09-25T09:22:24;11.27;;;10.67;;
2622;SDS011;1321;48.690;9.022;2022-09-25T09:25:01;11.03;;;10.53;;
2622;SDS011;1321;48.690;9.022;2022-09-25T09:27:51;11.83;;;11.20;;
2622;SDS011;1321;48.690;9.022;2022-09-25T09:30:31;12.03;;;11.33;;
2622;SDS011;1321;48.690;9.022;2022-09-25T09:33:09;11.13;;;10.53;;
2622;SDS011;1321;48.690;9.022;2022-09-25T09:35:46;11.17;;;10.67;;
2622;SDS011;1321;48.690;9.022;2022-09-25T09:38:26;10.57;;;10.10;;
2622;SDS011;1321;48.690;9.022;2022-09-25T09:41:07;12.00;;;11.50;;
2622;SDS011;1321;48.690;9.022;2022-09-25T09:43:46;10.43;;;9.97;;
2622;SDS011;1321;48.690;9.022;2022-09-25T09:46:26;11.00;;;10.20;;
2622;SDS011;1321;48.690;9.022;2022-09-25T09:49:03;10.83;;;10.23;;
2622;SDS011;1321;48.690;9.022;2022-09-25T09:51:39;12.00;;;11.20;;
2622;SDS011;1321;48.690;9.022;2022-09-25T09:54:11;10.60;;;10.10;;
2622;SDS011;1321;48.690;9.022;2022-09-25T09:56:45;10.83;;;10.33;;
2622;SDS011;1321;48.690;9.022;2022-09-25T09:59:17;9.80;;;9.40;;
2622;SDS011;1321;48.690;9.022;2022-09-25T10:01:51;10.00;;;9.50;;
2622;SDS011;1321;48.690;9.022;2022-09-25T10:04:28;10.00;;;9.50;;
2622;SDS011;1321;48.690;9.022;2022-09-25T10:07:00;12.93;;;10.07;;
2622;SDS011;1321;48.690;9.022;2022-09-25T10:09:32;10.90;;;10.07;;
2622;SDS011;1321;48.690;9.022;2022-09-25T10:12:05;10.00;;;9.40;;
2622;SDS011;1321;48.690;9.022;2022-09-25T10:14:41;9.03;;;8.50;;
2622;SDS011;1321;48.690;9.022;2022-09-25T10:17:12;9.00;;;8.40;;
2622;SDS011;1321;48.690;9.022;2022-09-25T10:19:43;11.10;;;10.30;;
2622;SDS011;1321;48.690;9.022;2022-09-25T10:22:16;9.60;;;9.00;;
2622;SDS011;1321;48.690;9.022;2022-09-25T10:24:47;12.73;;;11.63;;
2622;SDS011;1321;48.690;9.022;2022-09-25T10:27:29;11.10;;;10.40;;
2622;SDS011;1321;48.690;9.022;2022-09-25T10:30:15;9.60;;;9.00;;
2622;SDS011;1321;48.690;9.022;2022-09-25T10:32:54;11.47;;;10.63;;
2622;SDS011;1321;48.690;9.022;2022-09-25T10:35:29;11.20;;;10.50;;
2622;SDS011;1321;48.690;9.022;2022-09-25T10:38:15;11.03;;;10.33;;
2622;SDS011;1321;48.690;9.022;2022-09-25T10:40:55;12.00;;;11.10;;
2622;SDS011;1321;48.690;9.022;2022-09-25T10:43:27;11.53;;;10.73;;
2622;SDS011;1321;48.690;9.022;2022-09-25T10:46:06;14.07;;;12.80;;
2622;SDS011;1321;48.690;9.022;2022-09-25T10:48:38;10.43;;;9.73;;
2622;SDS011;1321;48.690;9.022;2022-09-25T10:51:25;10.37;;;9.77;;
2622;SDS011;1321;48.690;9.022;2022-09-25T10:54:09;10.50;;;9.77;;
2622;SDS011;1321;48.690;9.022;2022-09-25T10:56:39;9.90;;;9.17;;
2622;SDS011;1321;48.690;9.022;2022-09-25T10:59:14;10.03;;;9.33;;
2622;SDS011;1321;48.690;9.022;2022-09-25T11:01:46;9.57;;;8.93;;
2622;SDS011;1321;48.690;9.022;2022-09-25T11:04:19;10.03;;;9.27;;
2622;SDS011;1321;48.690;9.022;2022-09-25T11:06:51;9.60;;;8.80;;
2622;SDS011;1321;48.690;9.022;2022-09-25T11:09:23;9.67;;;9.07;;
2622;SDS011;1321;48.690;9.022;2022-09-25T11:11:53;10.80;;;10.00;;
2622;SDS011;1321;48.690;9.022;2022-09-25T11:14:34;9.90;;;9.30;;
2622;SDS011;1321;48.690;9.022;2022-09-25T11:17:03;9.40;;;8.80;;
2622;SDS011;1321;48.690;9.022;2022-09-25T11:19:34;9.60;;;8.90;;
2622;SDS011;1321;48.690;9.022;2022-09-25T11:22:10;9.77;;;9.17;;
2622;SDS011;1321;48.690;9.022;2022-09-25T11:24:46;9.83;;;8.93;;
2622;SDS011;1321;48.690;9.022;2022-09-25T11:27:28;10.47;;;9.47;;
2622;SDS011;1321;48.690;9.022;2022-09-25T11:30:05;12.20;;;11.30;;
2622;SDS011;1321;48.690;9.022;2022-09-25T11:32:39;11.30;;;10.40;;
2622;SDS011;1321;48.690;9.022;2022-09-25T11:35:20;12.50;;;11.30;;
2622;SDS011;1321;48.690;9.022;2022-09-25T11:38:02;12.27;;;11.10;;
2622;SDS011;1321;48.690;9.022;2022-09-25T11:40:39;13.63;;;12.33;;
2622;SDS011;1321;48.690;9.022;2022-09-25T11:43:49;14.00;;;12.80;;
2622;SDS011;1321;48.690;9.022;2022-09-25T11:46:30;14.63;;;13.50;;
2622;SDS011;1321;48.690;9.022;2022-09-25T11:49:07;17.13;;;15.73;;
2622;SDS011;1321;48.690;9.022;2022-09-25T11:54:54;17.33;;;15.87;;
2622;SDS011;1321;48.690;9.022;2022-09-25T11:57:51;17.93;;;16.20;;
2622;SDS011;1321;48.690;9.022;2022-09-25T12:00:28;18.23;;;16.73;;
2622;SDS011;1321;48.690;9.022;2022-09-25T12:03:15;19.37;;;17.47;;
2622;SDS011;1321;48.690;9.022;2022-09-25T12:06:13;20.63;;;18.53;;
2622;SDS011;1321;48.690;9.022;2022-09-25T12:08:55;18.90;;;17.20;;
2622;SDS011;1321;48.690;9.022;2022-09-25T12:11:38;18.77;;;17.13;;
2622;SDS011;1321;48.690;9.022;2022-09-25T12:14:14;19.53;;;17.73;;
2622;SDS011;1321;48.690;9.022;2022-09-25T12:16:53;22.27;;;20.00;;
2622;SDS011;1321;48.690;9.022;2022-09-25T12:19:39;24.73;;;22.00;;
2622;SDS011;1321;48.690;9.022;2022-09-25T12:22:13;21.33;;;19.10;;
2622;SDS011;1321;48.690;9.022;2022-09-25T12:24:51;19.67;;;17.87;;
2622;SDS011;1321;48.690;9.022;2022-09-25T12:27:33;20.43;;;18.53;;
2622;SDS011;1321;48.690;9.022;2022-09-25T12:30:13;19.50;;;17.77;;
2622;SDS011;1321;48.690;9.022;2022-09-25T12:32:51;19.37;;;17.60;;
2622;SDS011;1321;48.690;9.022;2022-09-25T12:35:34;19.83;;;17.87;;
2622;SDS011;1321;48.690;9.022;2022-09-25T12:38:10;20.40;;;18.53;;
2622;SDS011;1321;48.690;9.022;2022-09-25T12:40:47;19.83;;;17.73;;
2622;SDS011;1321;48.690;9.022;2022-09-25T12:43:23;21.20;;;19.20;;
2622;SDS011;1321;48.690;9.022;2022-09-25T12:45:55;20.90;;;18.90;;
2622;SDS011;1321;48.690;9.022;2022-09-25T12:48:29;19.20;;;17.40;;
2622;SDS011;1321;48.690;9.022;2022-09-25T12:51:10;18.60;;;16.80;;
2622;SDS011;1321;48.690;9.022;2022-09-25T12:53:43;20.80;;;18.90;;
2622;SDS011;1321;48.690;9.022;2022-09-25T12:56:13;17.70;;;16.40;;
2622;SDS011;1321;48.690;9.022;2022-09-25T12:58:53;19.20;;;17.63;;
2622;SDS011;1321;48.690;9.022;2022-09-25T13:01:28;17.93;;;16.60;;
2622;SDS011;1321;48.690;9.022;2022-09-25T13:04:08;19.10;;;17.47;;
2622;SDS011;1321;48.690;9.022;2022-09-25T13:06:48;17.73;;;16.43;;
2622;SDS011;1321;48.690;9.022;2022-09-25T13:09:28;17.13;;;15.90;;
2622;SDS011;1321;48.690;9.022;2022-09-25T13:12:01;17.80;;;16.30;;
2622;SDS011;1321;48.690;9.022;2022-09-25T13:14:36;19.00;;;17.50;;
2622;SDS011;1321;48.690;9.022;2022-09-25T13:17:09;18.47;;;16.97;;
2622;SDS011;1321;48.690;9.022;2022-09-25T13:19:38;17.67;;;16.23;;
2622;SDS011;1321;48.690;9.022;2022-09-25T13:22:08;18.50;;;17.20;;
2622;SDS011;1321;48.690;9.022;2022-09-25T13:24:42;17.80;;;16.40;;
2622;SDS011;1321;48.690;9.022;2022-09-25T13:27:14;18.73;;;17.03;;
2622;SDS011;1321;48.690;9.022;2022-09-25T13:29:50;18.33;;;16.73;;
2622;SDS011;1321;48.690;9.022;2022-09-25T13:32:22;18.57;;;16.97;;
2622;SDS011;1321;48.690;9.022;2022-09-25T13:34:54;19.20;;;17.37;;
2622;SDS011;1321;48.690;9.022;2022-09-25T13:37:29;18.50;;;16.90;;
2622;SDS011;1321;48.690;9.022;2022-09-25T13:39:59;17.90;;;16.40;;
2622;SDS011;1321;48.690;9.022;2022-09-25T13:42:51;18.97;;;17.27;;
2622;SDS011;1321;48.690;9.022;2022-09-25T13:45:30;19.50;;;17.90;;
2622;SDS011;1321;48.690;9.022;2022-09-25T13:48:00;17.27;;;15.83;;
2622;SDS011;1321;48.690;9.022;2022-09-25T13:50:43;17.80;;;16.03;;
2622;SDS011;1321;48.690;9.022;2022-09-25T13:53:23;18.90;;;17.33;;
2622;SDS011;1321;48.690;9.022;2022-09-25T13:56:16;17.57;;;16.17;;
2622;SDS011;1321;48.690;9.022;2022-09-25T14:01:55;17.20;;;15.70;;
2622;SDS011;1321;48.690;9.022;2022-09-25T14:04:29;18.20;;;16.60;;
2622;SDS011;1321;48.690;9.022;2022-09-25T14:07:12;17.70;;;16.10;;
2622;SDS011;1321;48.690;9.022;2022-09-25T14:09:49;15.90;;;14.80;;
2622;SDS011;1321;48.690;9.022;2022-09-25T14:12:31;16.53;;;15.33;;
2622;SDS011;1321;48.690;9.022;2022-09-25T14:15:08;16.57;;;15.37;;
2622;SDS011;1321;48.690;9.022;2022-09-25T14:17:46;20.07;;;18.27;;
2622;SDS011;1321;48.690;9.022;2022-09-25T14:20:34;15.50;;;14.17;;
2622;SDS011;1321;48.690;9.022;2022-09-25T14:23:05;16.80;;;15.13;;
2622;SDS011;1321;48.690;9.022;2022-09-25T14:25:42;15.93;;;14.73;;
2622;SDS011;1321;48.690;9.022;2022-09-25T14:28:22;16.87;;;15.37;;
2622;SDS011;1321;48.690;9.022;2022-09-25T14:31:02;15.67;;;14.27;;
2622;SDS011;1321;48.690;9.022;2022-09-25T14:33:45;16.87;;;15.37;;
2622;SDS011;1321;48.690;9.022;2022-09-25T14:36:29;17.20;;;15.90;;
2622;SDS011;1321;48.690;9.022;2022-09-25T14:39:09;15.53;;;14.20;;
2622;SDS011;1321;48.690;9.022;2022-09-25T14:41:56;18.07;;;16.53;;
2622;SDS011;1321;48.690;9.022;2022-09-25T14:44:51;16.57;;;15.10;;
2622;SDS011;1321;48.690;9.022;2022-09-25T14:47:34;15.93;;;14.53;;
2622;SDS011;1321;48.690;9.022;2022-09-25T14:50:10;16.00;;;14.60;;
2622;SDS011;1321;48.690;9.022;2022-09-25T14:52:49;16.27;;;14.87;;
2622;SDS011;1321;48.690;9.022;2022-09-25T14:55:22;16.10;;;14.60;;
2622;SDS011;1321;48.690;9.022;2022-09-25T14:57:54;13.90;;;12.87;;
2622;SDS011;1321;48.690;9.022;2022-09-25T15:00:24;15.00;;;13.80;;
2622;SDS011;1321;48.690;9.022;2022-09-25T15:02:54;14.80;;;13.60;;
2622;SDS011;1321;48.690;9.022;2022-09-25T15:05:28;15.47;;;13.97;;
2622;SDS011;1321;48.690;9.022;2022-09-25T15:07:58;14.10;;;12.83;;
2622;SDS011;1321;48.690;9.022;2022-09-25T15:10:29;15.00;;;13.70;;
2622;SDS011;1321;48.690;9.022;2022-09-25T15:13:10;14.60;;;13.40;;
2622;SDS011;1321;48.690;9.022;2022-09-25T15:15:42;14.80;;;13.37;;
2622;SDS011;1321;48.690;9.022;2022-09-25T15:18:26;14.33;;;12.43;;
2622;SDS011;1321;48.690;9.022;2022-09-25T15:20:56;13.70;;;12.57;;
2622;SDS011;1321;48.690;9.022;2022-09-25T15:23:25;14.47;;;13.13;;
2622;SDS011;1321;48.690;9.022;2022-09-25T15:26:00;13.07;;;11.83;;
2622;SDS011;1321;48.690;9.022;2022-09-25T15:28:30;12.80;;;11.67;;
2622;SDS011;1321;48.690;9.022;2022-09-25T15:31:06;13.20;;;12.10;;
2622;SDS011;1321;48.690;9.022;2022-09-25T15:33:35;13.60;;;12.40;;